Pateros, WA (98846)

5:22 PM PDT on September 30, 2014 (GMT -0700)
Omak | Change Station
CLOSE
Current Station
Airport
Location: Omak,
Elevation: 1302 ft
Nearby Weather Stations

Elev 1302 ft 48.46 °N, 119.52 °W | Updated 29 minutes ago

Mostly Cloudy
Mostly Cloudy
64 °F
Feels Like 64 °F
N
20
Wind Variable Wind from North

Today
High -- | Low -- °F
--% Chance of Precip.
Yesterday
High -- | Low -- °F
Precip. -- in
6:57 AM 6:40 PM
Waxing Crescent, 41% visible
Pressure 29.95 in
Visibility 10.0 miles
Clouds Mostly Cloudy 10000 ft
Dew Point 39 °F
Humidity 40%
Rainfall 0.00 in
Snow Depth 0 in , 0 in , 1 in
UV 1 out of 12
Pollen 2.40 out of 12
Air Quality Not available.
Flu Activity Not available.
METAR KOMK 302353Z AUTO 36017KT 10SM BKN100 18/04 A2994 RMK AO2 RAE25 SLP140 P0000 60000 T01780039 10222 20150 53016

More Conditions Fewer Conditions

Pressure 29.95 in
Visibility 10.0 miles
Clouds Mostly Cloudy 10000 ft
Dew Point 39 °F
Humidity 40%
Rainfall 0.00 in
Snow Depth 0 in , 0 in , 1 in
UV 1 out of 12
Pollen 2.40 out of 12
Air Quality Not available.
Flu Activity Not available.
METAR KOMK 302353Z AUTO 36017KT 10SM BKN100 18/04 A2994 RMK AO2 RAE25 SLP140 P0000 60000 T01780039 10222 20150 53016

More Conditions Fewer Conditions

10-Day Weather Forecast

Almanac

Astronomy

Sep. 30, 2014 Rise Set
Actual Time 6:57 AM PDT 6:40 PM PDT
Civil Twilight 6:26 AM PDT 7:11 PM PDT
Nautical Twilight 5:49 AM PDT 7:47 PM PDT
Astronomical Twilight 5:12 AM PDT 8:24 PM PDT
Moon 1:31 PM PDT (9/30) 10:54 PM PDT (9/30)
Length of Visible Light 12h 44m
Length of Day
11h 42m
Tomorrow will be 3m 29s shorter.
Waxing Crescent, 41% of the Moon is Illuminated
Today
Waxing Crescent
Oct 1
First Quarter
Oct 8
Full
Oct 15
Last Quarter
Oct 23
New

Today's Extremes

State Highs State Lows

Community

WunderPhotos

Upload Photos

1,757,792 photos uploaded!

Nearby

Snow Depth

Station Depth Elevation
Bunchgrass Meadow 0 in 5000 ft
Grouse Camp 0 in 5380 ft
Surprise Lakes 1 in 4250 ft
Trough 0 in 5300 ft
Elbow Lake 0 in 3200 ft

Earthquake Activity

City Distance Mag. Time & Date
No recent earthquake activity has been reported nearby.
Minimum magnitude displayed is 2.5.

Coastal Water Temperatures

Place Temperature
No Stations Reporting

Nearby Weather Stations